Time;durP1;ratioP1;P1;durP2;ratioP2;P2;SDS_P1;SDS_P2;PMS_P1;PMS_P2;Temp;Humidity;BMP_temperature;BMP_pressure;BME280_temperature;BME280_humidity;BME280_pressure;Samples;Min_cycle;Max_cycle;Signal;HPM_P1;HPM_P2
2022/04/29 00:02:07;;;;;;;10.18;6.65;;;;;;;7.23;61.73;102319.19;7397182;19;20042;-67
2022/04/29 00:04:40;;;;;;;8.85;6.35;;;;;;;7.20;61.79;102326.94;7396716;19;20039;-67
2022/04/29 00:07:09;;;;;;;9.00;6.72;;;;;;;7.14;61.78;102329.44;7397040;19;20035;-67
2022/04/29 00:09:38;;;;;;;9.73;6.47;;;;;;;7.08;62.04;102319.78;7396517;19;20031;-68
2022/04/29 00:12:10;;;;;;;12.50;7.07;;;;;;;7.04;62.04;102322.31;7398376;19;20485;-67
2022/04/29 00:14:38;;;;;;;9.35;6.70;;;;;;;6.98;61.97;102321.34;7398327;19;20545;-67
2022/04/29 00:17:08;;;;;;;7.68;6.85;;;;;;;6.94;62.01;102314.31;7396319;19;20019;-67
2022/04/29 00:19:38;;;;;;;8.18;6.03;;;;;;;6.88;62.08;102316.81;7396140;19;20014;-68
2022/04/29 00:22:07;;;;;;;9.50;7.18;;;;;;;6.84;62.32;102322.81;7396859;19;20482;-67
2022/04/29 00:24:35;;;;;;;10.63;6.40;;;;;;;6.79;62.45;102327.06;7398362;19;20015;-67
2022/04/29 00:27:03;;;;;;;9.50;7.13;;;;;;;6.74;62.41;102313.94;7395731;19;20502;-67
2022/04/29 00:29:32;;;;;;;10.43;8.05;;;;;;;6.71;62.73;102319.09;7396032;19;20022;-67
2022/04/29 00:32:00;;;;;;;12.52;8.82;;;;;;;6.68;62.93;102324.25;7396087;19;20031;-67
2022/04/29 00:34:35;;;;;;;12.57;7.60;;;;;;;6.63;63.27;102316.31;7397979;19;20031;-67
2022/04/29 00:37:06;;;;;;;11.13;7.35;;;;;;;6.59;63.17;102319.72;7395932;19;20011;-67
2022/04/29 00:39:34;;;;;;;9.95;7.10;;;;;;;6.54;63.38;102316.16;7395654;19;20023;-67
2022/04/29 00:42:02;;;;;;;12.32;7.20;;;;;;;6.48;63.46;102318.63;7395740;19;20022;-67
2022/04/29 00:44:36;;;;;;;12.00;7.95;;;;;;;6.43;63.48;102315.94;7396320;19;20411;-68
2022/04/29 00:47:06;;;;;;;9.50;6.63;;;;;;;6.38;63.73;102314.94;7395980;19;20026;-68
2022/04/29 00:49:34;;;;;;;11.27;7.75;;;;;;;6.33;63.94;102306.16;7396883;19;20354;-68
2022/04/29 00:52:02;;;;;;;11.73;6.78;;;;;;;6.29;63.87;102304.34;7397831;19;20027;-68
2022/04/29 00:54:36;;;;;;;15.40;7.10;;;;;;;6.22;64.14;102297.22;7395429;19;20014;-68
2022/04/29 00:57:07;;;;;;;;;;;;;;;6.18;64.04;102296.31;7396607;19;20031;-67
2022/04/29 00:59:40;;;;;;;11.27;7.25;;;;;;;6.13;63.75;102300.50;7396435;19;19927;-68
2022/04/29 01:02:11;;;;;;;10.98;7.85;;;;;;;6.07;63.84;102298.66;7397474;19;20068;-68
2022/04/29 01:04:45;;;;;;;10.65;6.53;;;;;;;6.02;64.00;102301.16;7394774;19;20509;-68
2022/04/29 01:07:14;;;;;;;11.23;6.85;;;;;;;5.98;64.03;102303.66;7397359;19;20015;-67
2022/04/29 01:09:44;;;;;;;9.27;6.72;;;;;;;5.93;64.22;102300.06;7394352;19;20031;-68
2022/04/29 01:12:13;;;;;;;9.27;7.13;;;;;;;5.86;64.26;102299.91;7393339;19;20112;-68
2022/04/29 01:14:42;;;;;;;10.27;6.78;;;;;;;5.77;64.19;102291.88;7397905;19;20015;-69
2022/04/29 01:17:10;;;;;;;17.63;7.60;;;;;;;5.74;64.60;102296.13;7397974;19;20082;-68
2022/04/29 01:19:40;;;;;;;10.25;7.25;;;;;;;5.68;64.58;102291.69;7396045;19;20018;-68
2022/04/29 01:22:11;;;;;;;12.65;7.85;;;;;;;5.59;65.19;102287.13;7395343;19;20027;-67
2022/04/29 01:24:39;;;;;;;9.63;7.35;;;;;;;5.55;65.10;102293.97;7395091;19;20031;-68
2022/04/29 01:27:12;;;;;;;9.82;7.43;;;;;;;5.48;65.29;102292.06;7394529;19;20022;-67
2022/04/29 01:29:44;;;;;;;10.00;7.10;;;;;;;5.44;65.40;102289.38;7395608;19;20388;-68
2022/04/29 01:32:12;;;;;;;10.40;7.80;;;;;;;5.39;65.36;102287.50;7396494;19;20031;-67
2022/04/29 01:34:40;;;;;;;13.13;7.65;;;;;;;5.36;65.37;102282.25;7394358;19;20018;-68
2022/04/29 01:37:11;;;;;;;7.95;7.00;;;;;;;5.34;65.61;102289.13;7395929;19;20014;-67
2022/04/29 01:39:39;;;;;;;10.68;8.20;;;;;;;5.30;66.25;102309.84;7394055;19;20078;-67
2022/04/29 01:42:08;;;;;;;13.32;8.55;;;;;;;5.18;66.93;102308.69;7395657;19;20035;-67
2022/04/29 01:44:36;;;;;;;11.80;9.07;;;;;;;5.04;67.36;102303.13;7393225;19;20378;-68
2022/04/29 01:47:04;;;;;;;12.00;8.45;;;;;;;4.96;67.88;102312.44;7393837;19;20018;-67
2022/04/29 01:49:32;;;;;;;10.70;9.57;;;;;;;4.87;68.01;102304.41;7395355;19;20018;-67
2022/04/29 01:52:01;;;;;;;13.68;8.63;;;;;;;4.80;68.31;102305.06;7393841;19;20027;-67
2022/04/29 01:54:31;;;;;;;13.43;8.57;;;;;;;4.72;68.50;102304.88;7393696;19;20533;-68
2022/04/29 01:57:00;;;;;;;10.35;8.68;;;;;;;4.67;68.35;102299.53;7395773;19;20019;-67
2022/04/29 01:59:30;;;;;;;11.82;8.52;;;;;;;4.63;68.26;102296.81;7393168;19;20481;-67
2022/04/29 02:01:58;;;;;;;12.02;8.18;;;;;;;4.60;68.34;102295.03;7393876;19;20023;-67
2022/04/29 02:04:27;;;;;;;9.40;8.35;;;;;;;4.61;68.34;102293.28;7395207;19;20022;-68
2022/04/29 02:06:55;;;;;;;12.50;8.02;;;;;;;4.63;68.41;102294.22;7392904;19;20400;-67
2022/04/29 02:09:23;;;;;;;12.77;8.95;;;;;;;4.65;68.47;102289.94;7392904;19;20414;-67
2022/04/29 02:12:11;;;;;;;14.38;8.90;;;;;;;4.67;68.52;102289.13;7392994;19;20022;-67
2022/04/29 02:14:41;;;;;;;11.85;7.78;;;;;;;4.69;68.32;102290.06;7395940;19;20019;-68
2022/04/29 02:17:12;;;;;;;12.18;8.68;;;;;;;4.71;68.31;102295.28;7396599;19;20097;-67
2022/04/29 02:19:41;;;;;;;11.30;8.32;;;;;;;4.73;68.53;102296.22;7395062;19;20047;-68
2022/04/29 02:22:11;;;;;;;14.82;8.60;;;;;;;4.74;68.43;102290.19;7394736;19;20019;-68
2022/04/29 02:24:39;;;;;;;12.15;9.00;;;;;;;4.75;68.69;102291.06;7402194;19;20014;-67
2022/04/29 02:27:10;;;;;;;11.20;8.65;;;;;;;4.75;68.77;102294.53;7399217;19;20018;-67
2022/04/29 02:29:39;;;;;;;14.25;8.27;;;;;;;4.75;68.68;102294.53;7399562;19;20076;-66
2022/04/29 02:32:08;;;;;;;13.80;9.45;;;;;;;4.75;68.75;102291.06;7401472;19;20399;-67
2022/04/29 02:34:37;;;;;;;13.05;8.93;;;;;;;4.74;68.87;102290.19;7399068;19;20022;-67
2022/04/29 02:37:06;;;;;;;12.98;8.65;;;;;;;4.75;68.95;102291.94;7398808;19;20014;-66
2022/04/29 02:39:34;;;;;;;12.75;10.13;;;;;;;4.75;69.10;102285.88;7398482;19;20031;-67
2022/04/29 02:42:03;;;;;;;16.27;9.77;;;;;;;4.72;68.95;102297.06;7398629;19;20392;-67
2022/04/29 02:44:33;;;;;;;12.38;9.13;;;;;;;4.70;68.88;102302.22;7400463;19;20023;-67
2022/04/29 02:47:10;;;;;;;13.25;8.85;;;;;;;4.68;68.94;102303.03;7401559;19;20386;-67
2022/04/29 02:49:39;;;;;;;13.20;7.90;;;;;;;4.65;69.05;102300.31;7400782;19;20516;-67
2022/04/29 02:52:08;;;;;;;12.43;8.63;;;;;;;4.64;69.00;102301.16;7401383;19;20022;-67
2022/04/29 02:54:37;;;;;;;11.52;9.20;;;;;;;4.61;68.90;102299.34;7401324;19;20044;-66
2022/04/29 02:57:06;;;;;;;14.48;7.88;;;;;;;4.59;69.03;102294.94;7401123;19;20130;-67
2022/04/29 02:59:37;;;;;;;11.60;8.20;;;;;;;4.55;68.97;102301.81;7400165;19;20035;-67
2022/04/29 03:02:06;;;;;;;11.73;7.85;;;;;;;4.50;69.21;102295.56;7401464;19;20018;-67
2022/04/29 03:04:34;;;;;;;12.27;7.85;;;;;;;4.46;69.06;102294.63;7400959;19;20022;-67
2022/04/29 03:07:03;;;;;;;13.00;7.88;;;;;;;4.42;69.14;102305.75;7397922;19;20014;-68
2022/04/29 03:09:31;;;;;;;16.45;8.73;;;;;;;4.36;69.19;102298.69;7400516;19;20031;-67
2022/04/29 03:12:00;;;;;;;12.35;8.13;;;;;;;4.29;69.36;102295.84;7400675;19;20022;-67
2022/04/29 03:14:28;;;;;;;11.20;8.10;;;;;;;4.28;69.60;102291.50;7400452;19;20014;-67
2022/04/29 03:16:58;;;;;;;10.35;8.23;;;;;;;4.22;69.40;102293.06;7397915;19;20019;-68
2022/04/29 03:19:26;;;;;;;11.32;8.57;;;;;;;4.19;69.46;102294.69;7397900;19;20026;-67
2022/04/29 03:21:55;;;;;;;13.90;8.55;;;;;;;4.15;69.56;102300.66;7397785;19;20015;-67
2022/04/29 03:24:23;;;;;;;11.20;8.20;;;;;;;4.10;69.78;102297.91;7399926;19;20485;-67
2022/04/29 03:26:52;;;;;;;12.30;7.50;;;;;;;4.06;69.52;102294.31;7397474;19;20028;-67
2022/04/29 03:29:20;;;;;;;10.32;8.38;;;;;;;4.01;69.58;102295.03;7399867;19;20039;-67
2022/04/29 03:31:48;;;;;;;13.93;8.65;;;;;;;3.96;69.80;102289.69;7397051;19;20031;-67
2022/04/29 03:34:19;;;;;;;10.30;8.23;;;;;;;3.93;69.84;102292.22;7395758;19;20018;-69
2022/04/29 03:36:47;;;;;;;13.52;8.52;;;;;;;3.90;70.04;102297.28;7400137;19;20018;-67
2022/04/29 03:39:15;;;;;;;13.68;8.98;;;;;;;3.85;69.78;102294.53;7396956;19;20023;-67
2022/04/29 03:41:45;;;;;;;16.05;10.07;;;;;;;3.83;69.95;102292.75;7396693;19;20022;-67
2022/04/29 03:44:13;;;;;;;12.30;8.85;;;;;;;3.81;70.01;102281.44;7399302;19;20021;-67
2022/04/29 03:46:42;;;;;;;13.68;8.55;;;;;;;3.79;70.06;102288.28;7399727;19;20027;-67
2022/04/29 03:51:53;;;;;;;14.52;8.90;;;;;;;3.75;69.77;102284.72;7396493;19;20035;-67
2022/04/29 03:54:21;;;;;;;14.20;9.43;;;;;;;3.72;69.98;102279.44;7398846;19;20510;-67
2022/04/29 03:56:51;;;;;;;12.07;8.85;;;;;;;3.70;70.09;102283.69;7396689;19;20043;-67
2022/04/29 03:59:19;;;;;;;13.02;9.20;;;;;;;3.69;70.03;102279.31;7398431;19;20028;-67
2022/04/29 04:01:47;;;;;;;17.67;8.80;;;;;;;3.68;69.98;102281.06;7395993;19;20387;-67
2022/04/29 04:04:15;;;;;;;11.77;9.13;;;;;;;3.69;69.96;102281.91;7399070;19;20027;-67
2022/04/29 04:06:52;;;;;;;14.13;9.45;;;;;;;3.70;69.99;102283.69;7396664;19;20019;-67
2022/04/29 04:09:25;;;;;;;11.30;8.65;;;;;;;3.71;69.91;102288.06;7396685;19;20059;-67
2022/04/29 04:11:53;;;;;;;13.20;9.02;;;;;;;3.71;69.98;102286.31;7395980;19;20022;-67
2022/04/29 04:14:22;;;;;;;14.50;9.65;;;;;;;3.72;69.72;102288.09;7398092;19;20027;-67
2022/04/29 04:16:50;;;;;;;12.38;8.75;;;;;;;3.73;69.93;102289.00;7398059;19;20031;-67
2022/04/29 04:19:19;;;;;;;13.80;9.20;;;;;;;3.74;70.10;102289.03;7397699;19;20022;-67
2022/04/29 04:21:47;;;;;;;11.27;8.60;;;;;;;3.75;70.10;102298.59;7395381;19;20015;-67
2022/04/29 04:24:15;;;;;;;16.08;9.27;;;;;;;3.79;69.96;102296.09;7397443;19;20027;-67
2022/04/29 04:26:46;;;;;;;14.50;9.52;;;;;;;3.81;70.06;102303.09;7397238;19;20498;-67
2022/04/29 04:29:14;;;;;;;17.40;9.70;;;;;;;3.84;69.92;102302.28;7398110;19;20039;-66
2022/04/29 04:31:42;;;;;;;15.18;9.35;;;;;;;3.87;69.80;102305.00;7394930;19;20018;-67
2022/04/29 04:36:52;;;;;;;16.10;10.57;;;;;;;3.93;70.10;102300.00;7394333;19;20019;-67
2022/04/29 04:39:21;;;;;;;16.67;10.32;;;;;;;3.98;70.02;102298.44;7396812;19;20484;-66
2022/04/29 04:41:51;;;;;;;18.63;10.63;;;;;;;4.03;70.11;102298.53;7394699;19;20015;-67
2022/04/29 04:44:20;;;;;;;17.77;10.70;;;;;;;4.08;69.98;102302.16;7396085;19;20031;-67
2022/04/29 04:46:48;;;;;;;16.65;10.77;;;;;;;4.12;69.98;102304.03;7394763;19;20023;-67
2022/04/29 04:49:16;;;;;;;18.30;11.50;;;;;;;4.16;69.98;102305.00;7397003;19;20022;-67
2022/04/29 04:51:44;;;;;;;15.73;10.73;;;;;;;4.21;70.29;102306.91;7395161;19;20042;-67
2022/04/29 04:54:12;;;;;;;15.80;11.48;;;;;;;4.29;70.14;102314.06;7394905;19;20032;-67
2022/04/29 04:56:41;;;;;;;16.35;12.07;;;;;;;4.34;70.15;102320.25;7394681;19;20023;-67
2022/04/29 04:59:12;;;;;;;15.73;10.90;;;;;;;4.42;70.12;102321.34;7393584;19;20019;-68
2022/04/29 05:01:40;;;;;;;19.50;11.70;;;;;;;4.50;69.94;102329.34;7394243;19;20082;-68
2022/04/29 05:04:08;;;;;;;17.83;11.18;;;;;;;4.56;70.21;102321.75;7393118;19;20022;-68
2022/04/29 05:06:38;;;;;;;15.48;11.07;;;;;;;4.63;70.15;102328.88;7394571;19;20015;-67
2022/04/29 05:09:06;;;;;;;15.50;10.35;;;;;;;4.71;70.08;102326.50;7394430;19;20366;-67
2022/04/29 05:11:34;;;;;;;14.07;11.30;;;;;;;4.80;70.29;102328.47;7394615;19;20478;-68
2022/04/29 05:14:27;;;;;;;16.33;11.00;;;;;;;4.86;70.29;102321.72;7396874;19;20044;-66
2022/04/29 05:16:55;;;;;;;52.75;29.98;;;;;;;4.95;70.21;102321.09;7395304;19;20027;-67
2022/04/29 05:19:23;;;;;;;18.13;12.57;;;;;;;5.02;70.26;102325.63;7393321;19;20036;-68
2022/04/29 05:21:51;;;;;;;18.23;11.35;;;;;;;5.10;70.37;102322.34;7393152;19;20396;-68
2022/04/29 05:24:19;;;;;;;16.35;11.07;;;;;;;5.18;70.53;102313.00;7394989;19;20030;-65
2022/04/29 05:26:47;;;;;;;16.30;11.38;;;;;;;5.25;70.32;102320.13;7394181;19;20018;-66
2022/04/29 05:29:15;;;;;;;14.60;11.10;;;;;;;5.32;70.51;102319.47;7393731;19;20030;-64
2022/04/29 05:31:46;;;;;;;26.85;16.25;;;;;;;5.41;70.23;102316.22;7393609;19;20526;-65
2022/04/29 05:34:15;;;;;;;20.27;10.90;;;;;;;5.52;70.39;102313.84;7393629;19;20014;-65
2022/04/29 05:36:43;;;;;;;17.80;10.73;;;;;;;5.62;70.03;102317.56;7395328;19;20014;-64
2022/04/29 05:44:45;;;;;;;16.83;10.30;;;;;;;5.98;70.05;102317.56;7394720;19;20048;-63
2022/04/29 05:47:16;;;;;;;17.42;11.05;;;;;;;6.12;69.53;102317.88;7395002;19;20035;-62
2022/04/29 05:49:44;;;;;;;17.00;12.00;;;;;;;6.25;69.26;102318.16;7394908;19;20477;-62
2022/04/29 05:52:13;;;;;;;14.95;10.43;;;;;;;6.36;69.13;102308.84;7394336;19;20018;-66
2022/04/29 05:54:41;;;;;;;15.73;9.90;;;;;;;6.49;68.98;102312.56;7394809;19;20018;-66
2022/04/29 05:57:09;;;;;;;15.20;10.40;;;;;;;6.62;68.99;102306.75;7391097;19;20486;-66
2022/04/29 05:59:37;;;;;;;13.73;9.95;;;;;;;6.75;68.70;102304.38;7395887;19;20031;-66
2022/04/29 06:02:06;;;;;;;16.95;9.82;;;;;;;6.88;68.42;102306.38;7393695;19;20466;-66
2022/04/29 06:04:37;;;;;;;11.95;9.27;;;;;;;7.01;67.99;102304.84;7392711;19;20022;-66
2022/04/29 06:07:06;;;;;;;13.10;9.40;;;;;;;7.14;67.85;102314.69;7393293;19;20027;-65
2022/04/29 06:09:34;;;;;;;15.27;10.75;;;;;;;7.26;67.48;102313.13;7394623;19;20019;-66
2022/04/29 06:12:02;;;;;;;13.20;9.05;;;;;;;7.38;67.14;102312.44;7394322;19;20014;-66
2022/04/29 06:14:31;;;;;;;14.23;8.65;;;;;;;7.48;67.06;102314.34;7392715;19;20027;-66
2022/04/29 06:16:59;;;;;;;16.52;8.63;;;;;;;7.61;66.66;102321.53;7393844;19;20018;-64
2022/04/29 06:19:27;;;;;;;12.57;8.95;;;;;;;7.75;66.18;102313.06;7391907;19;20027;-65
2022/04/29 06:21:58;;;;;;;12.30;8.73;;;;;;;7.88;65.84;102314.97;7391888;19;20026;-66
2022/04/29 06:24:26;;;;;;;9.93;7.75;;;;;;;8.03;65.23;102313.47;7392353;19;20040;-66
2022/04/29 06:26:54;;;;;;;12.68;8.55;;;;;;;8.16;65.02;102310.13;7391905;19;20019;-66
2022/04/29 06:29:22;;;;;;;14.18;8.43;;;;;;;8.30;64.57;102318.16;7393989;19;20018;-65
2022/04/29 06:31:51;;;;;;;14.20;8.68;;;;;;;8.45;64.32;102309.63;7391402;19;20026;-65
2022/04/29 06:34:19;;;;;;;12.77;7.53;;;;;;;8.61;64.07;102309.00;7393355;19;20127;-65
2022/04/29 06:36:47;;;;;;;14.98;9.20;;;;;;;8.79;63.42;102307.44;7392459;19;20022;-65
2022/04/29 06:39:18;;;;;;;12.85;8.02;;;;;;;8.98;62.93;102312.88;7392517;19;20028;-65
2022/04/29 06:41:46;;;;;;;11.05;7.97;;;;;;;9.15;62.54;102313.03;7389901;19;20464;-65
2022/04/29 06:44:14;;;;;;;10.35;7.18;;;;;;;9.35;61.92;102318.44;7392112;19;20018;-65
2022/04/29 06:46:42;;;;;;;10.82;6.95;;;;;;;9.52;61.49;102314.22;7391582;19;20014;-65
2022/04/29 06:49:10;;;;;;;12.60;7.20;;;;;;;9.72;61.02;102324.88;7391885;19;20018;-66
2022/04/29 06:51:38;;;;;;;9.90;7.65;;;;;;;9.91;60.59;102322.38;7392005;19;20022;-66
2022/04/29 06:54:07;;;;;;;8.38;7.13;;;;;;;10.10;59.98;102320.72;7391841;19;20075;-66
2022/04/29 06:56:38;;;;;;;9.38;7.00;;;;;;;10.28;59.35;102319.94;7391049;19;20022;-67
2022/04/29 06:59:06;;;;;;;11.65;7.22;;;;;;;10.43;58.99;102319.16;7391119;19;20481;-66
2022/04/29 07:01:36;;;;;;;12.98;7.60;;;;;;;10.58;58.37;102316.59;7391833;19;20019;-66
2022/04/29 07:04:04;;;;;;;11.02;6.82;;;;;;;10.73;58.09;102317.53;7393383;19;20014;-66
2022/04/29 07:06:33;;;;;;;11.55;7.07;;;;;;;10.87;57.69;102318.44;7393266;19;20021;-67
2022/04/29 07:09:02;;;;;;;9.05;6.85;;;;;;;10.99;57.39;102322.81;7395487;19;20023;-66
2022/04/29 07:11:31;;;;;;;22.75;8.25;;;;;;;11.12;57.07;102320.22;7398083;19;20022;-66
2022/04/29 07:14:02;;;;;;;9.15;7.10;;;;;;;11.22;56.79;102317.63;7399907;19;20042;-66
2022/04/29 07:16:30;;;;;;;12.73;8.65;;;;;;;11.34;56.55;102315.88;7396535;19;20014;-67
2022/04/29 07:18:59;;;;;;;9.25;6.97;;;;;;;11.45;56.19;102321.09;7399702;19;20078;-62
2022/04/29 07:21:27;;;;;;;11.43;7.60;;;;;;;11.54;56.00;102314.09;7396985;19;20010;-62
2022/04/29 07:23:56;;;;;;;8.30;6.82;;;;;;;11.67;55.83;102320.22;7399631;19;20022;-64
2022/04/29 07:26:24;;;;;;;10.85;7.32;;;;;;;11.79;55.65;102314.09;7397149;19;20032;-63
2022/04/29 07:28:52;;;;;;;12.75;7.30;;;;;;;11.92;55.44;102314.03;7396562;19;20492;-62
2022/04/29 07:31:22;;;;;;;8.98;6.55;;;;;;;12.02;55.08;102311.44;7397557;19;20018;-63
2022/04/29 07:33:51;;;;;;;14.98;7.60;;;;;;;12.14;54.57;102313.13;7398673;19;20516;-67
2022/04/29 07:41:48;;;;;;;9.25;5.85;;;;;;;12.46;53.45;102306.91;7396978;19;20019;-68
2022/04/29 07:44:18;;;;;;;11.13;6.43;;;;;;;12.58;52.91;102300.69;7396739;19;20021;-67
2022/04/29 07:46:50;;;;;;;9.98;7.10;;;;;;;12.66;52.64;102301.53;7397001;19;20432;-67
2022/04/29 07:49:18;;;;;;;10.30;6.70;;;;;;;12.77;52.19;102303.22;7399163;19;20018;-67
2022/04/29 07:51:46;;;;;;;13.13;7.20;;;;;;;12.86;51.99;102301.41;7396096;19;20445;-67
2022/04/29 07:54:15;;;;;;;9.48;5.72;;;;;;;12.97;51.05;102300.47;7396598;19;20022;-67
2022/04/29 07:56:43;;;;;;;10.55;6.03;;;;;;;13.04;50.68;102289.88;7398654;19;20081;-68
2022/04/29 07:59:11;;;;;;;9.20;6.25;;;;;;;13.12;50.31;102291.59;7396424;19;20023;-67
2022/04/29 08:01:43;;;;;;;7.80;5.38;;;;;;;13.22;50.17;102297.63;7395712;19;20018;-67
2022/04/29 08:04:14;;;;;;;13.80;6.30;;;;;;;13.31;49.93;102292.31;7398783;19;20030;-67
2022/04/29 08:06:42;;;;;;;9.32;5.30;;;;;;;13.38;49.53;102288.72;7398029;19;20074;-67
2022/04/29 08:09:10;;;;;;;7.80;4.95;;;;;;;13.46;48.96;102280.78;7396199;19;20025;-67
2022/04/29 08:11:39;;;;;;;9.00;4.88;;;;;;;13.51;48.46;102282.47;7395770;19;20026;-68
2022/04/29 08:14:07;;;;;;;6.47;4.65;;;;;;;13.59;48.29;102278.91;7397614;19;20031;-67
2022/04/29 08:16:36;;;;;;;11.25;5.70;;;;;;;13.64;48.00;102280.59;7397424;19;20015;-67
2022/04/29 08:19:04;;;;;;;10.88;5.65;;;;;;;13.72;47.87;102285.78;7395043;19;20377;-66
2022/04/29 08:21:36;;;;;;;8.57;4.50;;;;;;;13.81;47.62;102282.19;7394823;19;20351;-67
2022/04/29 08:24:05;;;;;;;6.45;5.30;;;;;;;13.87;47.45;102289.16;7397923;19;20022;-66
2022/04/29 08:26:33;;;;;;;7.35;4.85;;;;;;;13.93;47.36;102289.97;7397566;19;20023;-67
2022/04/29 08:29:01;;;;;;;10.07;5.22;;;;;;;14.01;47.32;102290.75;7395256;19;20039;-67
2022/04/29 08:31:29;;;;;;;8.50;5.32;;;;;;;14.10;46.54;102289.78;7395235;19;20019;-67
2022/04/29 08:33:58;;;;;;;9.60;5.15;;;;;;;14.18;46.27;102284.41;7395756;19;20014;-67
2022/04/29 08:36:26;;;;;;;8.02;5.55;;;;;;;14.26;46.04;102286.94;7397280;19;20380;-67
2022/04/29 08:38:56;;;;;;;8.23;5.25;;;;;;;14.32;45.49;102279.81;7395079;19;20015;-69
2022/04/29 08:41:25;;;;;;;11.25;7.25;;;;;;;14.40;45.44;102278.84;7395321;19;20022;-68
2022/04/29 08:43:54;;;;;;;8.43;5.15;;;;;;;14.48;45.00;102279.59;7397114;19;20496;-69
2022/04/29 08:46:23;;;;;;;7.03;4.70;;;;;;;14.56;44.85;102283.03;7395085;19;20006;-67
2022/04/29 08:48:52;;;;;;;10.00;5.07;;;;;;;14.63;44.29;102278.53;7395350;19;20014;-67
2022/04/29 08:51:21;;;;;;;10.10;5.40;;;;;;;14.69;44.13;102267.91;7395537;19;20039;-66
2022/04/29 08:53:49;;;;;;;7.00;5.00;;;;;;;14.78;43.82;102270.41;7396924;19;20022;-67
2022/04/29 08:59:03;;;;;;;12.73;8.45;;;;;;;14.93;43.05;102271.09;7396965;19;20010;-67
2022/04/29 09:01:32;;;;;;;11.00;5.35;;;;;;;14.98;42.85;102271.88;7394699;19;20018;-67
2022/04/29 09:04:01;;;;;;;7.75;4.95;;;;;;;15.03;42.81;102269.19;7395977;19;20595;-68
2022/04/29 09:06:29;;;;;;;9.73;4.80;;;;;;;15.07;42.25;102257.66;7394403;19;20018;-67
2022/04/29 09:09:10;;;;;;;7.90;4.50;;;;;;;15.11;41.37;102269.91;7393979;19;20018;-67
2022/04/29 09:11:41;;;;;;;7.72;4.00;;;;;;;15.13;40.65;102263.69;7394204;19;20029;-65
2022/04/29 09:14:22;;;;;;;9.40;4.07;;;;;;;15.14;39.68;102260.16;7394380;19;20018;-67
2022/04/29 09:16:51;;;;;;;7.93;4.35;;;;;;;15.18;40.77;102257.44;7393244;19;20477;-66
2022/04/29 09:19:33;;;;;;;8.80;4.47;;;;;;;15.22;39.56;102256.53;7393928;19;20071;-66
2022/04/29 09:22:07;;;;;;;7.57;4.35;;;;;;;15.30;39.99;102266.06;7394320;19;20033;-67
2022/04/29 09:24:35;;;;;;;6.43;4.13;;;;;;;15.35;40.00;102257.19;7395078;19;20026;-67
2022/04/29 09:27:07;;;;;;;7.45;4.38;;;;;;;15.45;39.95;102256.97;7395370;19;20039;-67
2022/04/29 09:29:42;;;;;;;5.63;4.13;;;;;;;15.52;39.58;102262.16;7393654;19;20031;-70
2022/04/29 09:32:11;;;;;;;8.32;4.35;;;;;;;15.59;40.04;102258.50;7392717;19;20018;-68
2022/04/29 09:34:46;;;;;;;10.57;5.45;;;;;;;15.66;39.67;102253.94;7392849;19;20015;-68
2022/04/29 09:37:19;;;;;;;9.13;4.60;;;;;;;15.73;39.47;102245.91;7392473;19;20464;-66
2022/04/29 09:39:51;;;;;;;8.35;3.83;;;;;;;15.82;39.10;102257.22;7394321;19;20044;-64
2022/04/29 09:42:22;;;;;;;6.28;5.60;;;;;;;15.91;39.49;102254.38;7393156;19;20382;-66
2022/04/29 09:44:51;;;;;;;9.98;5.75;;;;;;;16.00;39.54;102240.97;7393941;19;20035;-65
2022/04/29 09:47:21;;;;;;;4.95;4.43;;;;;;;16.10;39.10;102242.53;7395562;19;20028;-65
2022/04/29 09:49:56;;;;;;;34.00;21.58;;;;;;;16.21;38.84;102239.63;7394915;19;20017;-65
2022/04/29 09:52:25;;;;;;;12.43;7.25;;;;;;;16.29;39.00;102236.84;7396027;19;20029;-65
2022/04/29 09:54:55;;;;;;;14.50;9.68;;;;;;;16.39;38.73;102232.19;7394540;19;20351;-65
2022/04/29 09:57:27;;;;;;;5.80;3.88;;;;;;;16.47;37.57;102232.00;7394906;19;20506;-65
2022/04/29 09:59:58;;;;;;;4.22;3.45;;;;;;;16.50;38.18;102222.22;7394672;19;20019;-66
2022/04/29 10:02:27;;;;;;;5.13;4.15;;;;;;;16.54;37.82;102225.69;7393535;19;20500;-66
2022/04/29 10:04:57;;;;;;;6.95;4.13;;;;;;;16.56;37.52;102227.38;7394222;19;20530;-65
2022/04/29 10:07:27;;;;;;;7.38;4.40;;;;;;;16.59;37.63;102226.44;7392553;19;20014;-71
2022/04/29 10:09:56;;;;;;;12.68;7.30;;;;;;;16.58;37.78;102222.94;7393317;19;20466;-67
2022/04/29 10:12:29;;;;;;;10.80;5.88;;;;;;;16.57;37.88;102220.31;7392129;19;20018;-67
2022/04/29 10:15:05;;;;;;;5.95;4.10;;;;;;;16.56;37.60;102219.44;7392662;19;20382;-67
2022/04/29 10:23:05;;;;;;;6.38;4.25;;;;;;;16.52;37.40;102211.63;7392603;19;20423;-64
2022/04/29 10:25:35;;;;;;;4.10;3.55;;;;;;;16.52;37.28;102214.25;7392507;19;20127;-65
2022/04/29 10:28:07;;;;;;;9.23;4.55;;;;;;;16.50;37.46;102203.69;7393562;19;20035;-66
2022/04/29 10:30:37;;;;;;;6.05;3.60;;;;;;;16.52;37.43;102211.63;7392266;19;20485;-65
2022/04/29 10:33:08;;;;;;;5.82;3.65;;;;;;;16.52;36.98;102206.31;7394096;19;20017;-65
2022/04/29 10:35:53;;;;;;;7.80;4.63;;;;;;;16.52;36.81;102214.25;7394242;19;20038;-64
2022/04/29 10:38:25;;;;;;;9.07;4.97;;;;;;;16.49;36.74;102209.03;7393308;19;20091;-66
2022/04/29 10:41:13;;;;;;;10.23;4.55;;;;;;;16.45;36.84;102211.75;7392883;19;20018;-65
2022/04/29 10:43:48;;;;;;;7.10;4.32;;;;;;;16.44;36.89;102201.16;7395851;19;20018;-64
2022/04/29 10:46:20;;;;;;;5.93;3.72;;;;;;;16.44;36.47;102190.56;7398843;19;20014;-65
2022/04/29 10:48:48;;;;;;;7.60;3.92;;;;;;;16.47;36.57;102192.28;7402675;19;20015;-65
2022/04/29 10:51:19;;;;;;;6.82;3.55;;;;;;;16.52;36.16;102190.44;7398742;19;20517;-67
2022/04/29 10:53:49;;;;;;;5.53;3.47;;;;;;;16.61;36.06;102187.53;7401375;19;20022;-66
2022/04/29 10:56:42;;;;;;;9.05;3.95;;;;;;;16.71;35.15;102182.91;7401232;19;20018;-65
2022/04/29 10:59:21;;;;;;;4.20;3.50;;;;;;;16.84;34.83;102186.09;7400947;19;20019;-66
2022/04/29 11:02:08;;;;;;;6.60;3.13;;;;;;;16.97;34.28;102182.25;7398062;19;20015;-68
2022/04/29 11:04:47;;;;;;;4.25;3.15;;;;;;;17.05;33.34;102177.63;7400913;19;20023;-66
2022/04/29 11:07:42;;;;;;;5.32;3.45;;;;;;;17.09;33.64;102171.34;7400476;19;20045;-66
2022/04/29 11:10:12;;;;;;;6.03;2.63;;;;;;;17.23;34.10;102170.09;7397595;19;20010;-66
2022/04/29 11:12:42;;;;;;;4.72;2.90;;;;;;;17.32;33.51;102167.19;7397877;19;20042;-67
2022/04/29 11:15:15;;;;;;;5.10;3.13;;;;;;;17.40;32.95;102167.88;7396560;19;20517;-65
2022/04/29 11:17:50;;;;;;;6.03;3.13;;;;;;;17.51;32.37;102164.03;7396887;19;20042;-68
2022/04/29 11:20:21;;;;;;;4.75;2.60;;;;;;;17.61;33.13;102160.19;7398134;19;20026;-66
2022/04/29 11:25:50;;;;;;;4.05;2.90;;;;;;;17.81;32.08;102153.47;7399177;19;20007;-65
2022/04/29 11:28:18;;;;;;;5.43;2.97;;;;;;;17.83;32.36;102154.25;7399542;19;20014;-69
2022/04/29 11:30:51;;;;;;;3.42;2.55;;;;;;;17.90;31.97;102153.16;7396215;19;20481;-68
2022/04/29 11:33:28;;;;;;;4.93;2.60;;;;;;;17.94;31.24;102141.56;7396008;19;20454;-67
2022/04/29 11:36:04;;;;;;;5.55;2.97;;;;;;;18.01;31.46;102142.28;7399008;19;20046;-67
2022/04/29 11:38:33;;;;;;;8.20;2.80;;;;;;;18.08;31.74;102133.16;7398333;19;20056;-67
2022/04/29 11:41:03;;;;;;;4.07;2.15;;;;;;;18.15;31.46;102131.22;7395938;19;20018;-67
2022/04/29 11:43:31;;;;;;;4.43;2.13;;;;;;;18.22;30.63;102132.72;7396489;19;20019;-67
2022/04/29 11:46:07;;;;;;;6.40;2.63;;;;;;;18.26;29.16;102129.09;7396615;19;20013;-71
2022/04/29 11:48:36;;;;;;;4.30;2.40;;;;;;;18.35;30.60;102122.56;7396160;19;20518;-67
2022/04/29 11:51:06;;;;;;;2.97;2.22;;;;;;;18.50;30.11;102126.53;7396606;19;20410;-70
2022/04/29 11:53:35;;;;;;;3.28;1.85;;;;;;;18.66;29.75;102122.44;7396667;19;20014;-68
2022/04/29 11:56:03;;;;;;;2.35;1.88;;;;;;;18.85;29.21;102117.34;7395723;19;20496;-69
2022/04/29 11:58:37;;;;;;;4.32;2.05;;;;;;;19.02;28.51;102114.16;7395701;19;20109;-67
2022/04/29 12:01:09;;;;;;;4.50;1.83;;;;;;;19.22;27.53;102115.19;7395724;19;20022;-73
2022/04/29 12:03:37;;;;;;;6.35;2.35;;;;;;;19.36;27.86;102106.72;7395718;19;20025;-69
2022/04/29 12:06:06;;;;;;;4.22;2.25;;;;;;;19.54;27.61;102107.84;7395528;19;20022;-68